Time;durP1;ratioP1;P1;durP2;ratioP2;P2;SDS_P1;SDS_P2;PMS_P1;PMS_P2;Temp;Humidity;BMP_temperature;BMP_pressure;BME280_temperature;BME280_humidity;BME280_pressure;Samples;Min_cycle;Max_cycle;Signal;HPM_P1;HPM_P2
2023/06/16 00:01:23;;;;;;;18.10;9.95;;;;;;;14.46;80.30;101699.03;5053503;28;20365;-45
2023/06/16 00:03:49;;;;;;;16.70;10.77;;;;;;;14.31;80.35;101698.63;5052830;28;20063;-47
2023/06/16 00:06:15;;;;;;;16.67;9.65;;;;;;;14.29;80.91;101690.81;5053366;28;20275;-45
2023/06/16 00:08:44;;;;;;;17.63;10.15;;;;;;;14.21;80.21;101691.41;5053175;28;20028;-47
2023/06/16 00:11:16;;;;;;;20.40;10.70;;;;;;;14.18;80.59;101689.63;5052562;28;20025;-46
2023/06/16 00:13:42;;;;;;;18.65;10.32;;;;;;;14.13;80.54;101689.47;5053056;28;20052;-47
2023/06/16 00:16:09;;;;;;;17.35;10.50;;;;;;;14.20;80.11;101689.66;5053184;28;20484;-43
2023/06/16 00:18:35;;;;;;;14.57;10.18;;;;;;;14.13;80.14;101678.25;5052305;28;20036;-45
2023/06/16 00:21:02;;;;;;;16.05;10.45;;;;;;;14.16;80.40;101683.50;5053076;28;20037;-47
2023/06/16 00:23:28;;;;;;;17.42;10.18;;;;;;;14.12;79.48;101677.34;5052798;28;20112;-48
2023/06/16 00:25:53;;;;;;;16.50;9.85;;;;;;;14.13;79.45;101679.09;5052122;28;20516;-45
2023/06/16 00:28:21;;;;;;;14.15;9.90;;;;;;;14.01;79.59;101683.97;5053000;28;20033;-46
2023/06/16 00:30:47;;;;;;;18.67;10.25;;;;;;;13.96;80.10;101680.34;5052890;28;20029;-47
2023/06/16 00:33:15;;;;;;;22.15;10.40;;;;;;;13.76;81.64;101683.25;5052216;28;20372;-43
2023/06/16 00:35:41;;;;;;;15.05;10.25;;;;;;;13.91;79.97;101687.13;5052830;28;20020;-44
2023/06/16 00:38:06;;;;;;;14.55;9.18;;;;;;;13.94;79.98;101679.44;5052224;28;20097;-45
2023/06/16 00:40:31;;;;;;;15.15;10.18;;;;;;;13.92;79.46;101681.97;5051849;28;20100;-47
2023/06/16 00:42:58;;;;;;;14.27;9.75;;;;;;;13.83;79.63;101684.31;5052823;28;20025;-45
2023/06/16 00:45:24;;;;;;;17.63;10.32;;;;;;;13.78;79.54;101691.94;5052770;28;20078;-47
2023/06/16 00:47:51;;;;;;;18.45;9.68;;;;;;;13.80;79.28;101689.38;5052247;28;20033;-43
2023/06/16 00:50:18;;;;;;;19.50;10.10;;;;;;;13.67;79.68;101682.94;5052891;28;20021;-47
2023/06/16 00:52:44;;;;;;;18.40;10.07;;;;;;;13.74;80.02;101692.66;5052453;28;20028;-46
2023/06/16 00:55:11;;;;;;;15.90;9.45;;;;;;;13.70;79.67;101682.16;5051964;28;20025;-44
2023/06/16 00:57:38;;;;;;;14.20;9.10;;;;;;;13.67;80.60;101682.94;5052313;28;20397;-47
2023/06/16 01:00:06;;;;;;;17.13;10.18;;;;;;;13.62;80.94;101684.50;5051846;28;20047;-46
2023/06/16 01:02:32;;;;;;;15.00;8.98;;;;;;;13.55;81.62;101673.09;5052556;28;20025;-43
2023/06/16 01:04:58;;;;;;;14.98;9.65;;;;;;;13.51;82.24;101676.44;5052731;28;20163;-42
2023/06/16 01:07:42;;;;;;;13.18;9.50;;;;;;;13.41;82.30;101676.97;5051458;28;20484;-46
2023/06/16 01:10:17;;;;;;;15.10;10.20;;;;;;;13.33;82.66;101666.34;5052571;28;20021;-43
2023/06/16 01:12:49;;;;;;;15.63;9.70;;;;;;;13.21;84.24;101672.03;5052447;28;20037;-43
2023/06/16 01:15:19;;;;;;;12.85;9.07;;;;;;;13.06;85.13;101669.81;5051955;28;20025;-46
2023/06/16 01:17:46;;;;;;;17.38;9.73;;;;;;;13.02;86.42;101666.22;5052237;28;20091;-43
2023/06/16 01:20:18;;;;;;;14.83;10.17;;;;;;;13.01;86.02;101668.78;5052348;28;20153;-48
2023/06/16 01:22:57;;;;;;;14.65;10.00;;;;;;;13.03;85.18;101672.31;5051296;28;20527;-44
2023/06/16 01:25:28;;;;;;;16.60;10.68;;;;;;;12.90;85.60;101677.88;5052048;28;20017;-44
2023/06/16 01:27:54;;;;;;;17.42;10.20;;;;;;;12.79;86.77;101672.34;5052421;28;20522;-45
2023/06/16 01:30:23;;;;;;;15.18;10.60;;;;;;;12.78;85.92;101674.09;5051706;28;20028;-46
2023/06/16 01:32:55;;;;;;;19.13;10.93;;;;;;;12.76;86.11;101677.44;5052235;28;20463;-44
2023/06/16 01:35:22;;;;;;;18.60;10.88;;;;;;;12.58;86.31;101673.38;5051534;28;20397;-47
2023/06/16 01:37:50;;;;;;;15.68;10.70;;;;;;;12.45;86.80;101677.25;5052530;28;20060;-44
2023/06/16 01:40:17;;;;;;;17.92;11.05;;;;;;;12.45;86.94;101671.22;5052422;28;20100;-44
2023/06/16 01:42:44;;;;;;;17.35;11.85;;;;;;;12.31;87.52;101673.31;5051329;28;20429;-43
2023/06/16 01:45:11;;;;;;;23.43;12.30;;;;;;;12.22;88.63;101667.81;5052560;28;20021;-44
2023/06/16 01:47:36;;;;;;;16.23;11.55;;;;;;;12.14;89.35;101675.28;5051948;28;20112;-45
2023/06/16 01:50:02;;;;;;;18.08;12.55;;;;;;;12.10;90.19;101665.66;5054738;28;20528;-43
2023/06/16 01:52:27;;;;;;;17.92;12.32;;;;;;;12.11;90.76;101665.72;5055859;28;20079;-45
2023/06/16 01:54:52;;;;;;;17.73;11.48;;;;;;;12.01;91.32;101658.44;5055989;28;20043;-46
2023/06/16 01:57:18;;;;;;;20.35;11.90;;;;;;;12.05;92.11;101656.88;5055119;28;20057;-45
2023/06/16 01:59:44;;;;;;;17.48;12.70;;;;;;;11.98;90.60;101653.16;5055671;28;20032;-45
2023/06/16 02:02:17;;;;;;;17.80;11.68;;;;;;;11.96;91.80;101659.97;5055709;28;20083;-45
2023/06/16 02:04:46;;;;;;;17.30;12.55;;;;;;;11.92;91.71;101663.25;5054758;28;20041;-46
2023/06/16 02:07:14;;;;;;;17.30;13.55;;;;;;;11.86;91.83;101662.19;5055729;28;20041;-48
2023/06/16 02:09:42;;;;;;;17.33;12.27;;;;;;;12.05;89.79;101668.06;5055407;28;20111;-46
2023/06/16 02:12:09;;;;;;;19.77;12.73;;;;;;;12.15;88.11;101666.72;5055072;28;20104;-45
2023/06/16 02:14:35;;;;;;;16.85;12.50;;;;;;;12.10;88.29;101665.66;5055151;28;20446;-44
2023/06/16 02:17:12;;;;;;;16.92;11.75;;;;;;;12.23;86.85;101669.56;5055687;28;20611;-46
2023/06/16 02:19:38;;;;;;;17.90;12.10;;;;;;;12.32;86.13;101672.47;5054412;28;20101;-44
2023/06/16 02:22:04;;;;;;;15.27;12.10;;;;;;;12.27;86.90;101666.28;5055378;28;20473;-46
2023/06/16 02:24:30;;;;;;;19.65;12.27;;;;;;;12.29;87.18;101673.25;5054370;28;20029;-44
2023/06/16 02:26:55;;;;;;;18.73;12.32;;;;;;;12.27;87.87;101668.84;5055188;28;20503;-44
2023/06/16 02:29:21;;;;;;;16.48;11.85;;;;;;;12.13;88.83;101668.34;5055255;28;20041;-46
2023/06/16 02:31:50;;;;;;;22.52;12.43;;;;;;;12.12;89.32;101672.66;5054863;28;20104;-45
2023/06/16 02:34:16;;;;;;;16.27;11.45;;;;;;;12.03;89.40;101667.13;5055074;28;20479;-43
2023/06/16 02:36:42;;;;;;;19.58;12.65;;;;;;;11.93;90.12;101665.00;5055022;28;20025;-44
2023/06/16 02:39:07;;;;;;;15.57;10.90;;;;;;;11.88;90.88;101676.84;5054410;28;20028;-45
2023/06/16 02:41:34;;;;;;;16.98;11.55;;;;;;;12.02;89.49;101670.56;5054824;28;20103;-44
2023/06/16 02:44:00;;;;;;;17.50;11.77;;;;;;;11.92;89.87;101669.28;5054926;28;20029;-46
2023/06/16 02:46:25;;;;;;;19.52;12.75;;;;;;;11.85;89.99;101668.19;5054151;28;20283;-45
2023/06/16 02:48:50;;;;;;;15.93;10.98;;;;;;;11.83;90.02;101674.97;5055119;28;20377;-44
2023/06/16 02:51:16;;;;;;;19.45;11.93;;;;;;;11.75;90.04;101668.66;5054813;28;20020;-47
2023/06/16 02:53:41;;;;;;;15.23;11.65;;;;;;;11.70;90.64;101668.47;5053735;28;20075;-47
2023/06/16 02:56:07;;;;;;;15.20;11.20;;;;;;;11.63;91.47;101666.50;5054915;28;20083;-45
2023/06/16 02:58:32;;;;;;;15.48;11.55;;;;;;;11.63;91.25;101665.59;5054370;28;20047;-44
2023/06/16 03:00:58;;;;;;;16.08;11.85;;;;;;;11.56;91.74;101663.63;5053130;28;20049;-45
2023/06/16 03:03:25;;;;;;;17.98;12.45;;;;;;;11.45;93.12;101661.50;5054432;28;20047;-46
2023/06/16 03:05:50;;;;;;;20.08;12.65;;;;;;;11.36;94.13;101666.28;5054710;28;20115;-45
2023/06/16 03:08:16;;;;;;;18.48;12.75;;;;;;;11.31;95.58;101670.38;5053898;28;20440;-44
2023/06/16 03:10:41;;;;;;;18.42;12.20;;;;;;;11.26;95.90;101675.38;5054161;28;20020;-46
2023/06/16 03:13:06;;;;;;;19.63;12.50;;;;;;;11.24;96.66;101670.97;5054331;28;20029;-44
2023/06/16 03:15:32;;;;;;;15.40;12.10;;;;;;;11.09;97.18;101672.13;5053296;28;20518;-46
2023/06/16 03:17:57;;;;;;;22.35;13.05;;;;;;;11.06;97.60;101671.97;5054462;28;20112;-45
2023/06/16 03:20:23;;;;;;;19.70;13.25;;;;;;;10.96;97.63;101667.25;5053969;28;20037;-45
2023/06/16 03:22:48;;;;;;;19.02;11.98;;;;;;;10.97;97.42;101666.44;5053509;28;20021;-47
2023/06/16 03:25:15;;;;;;;17.65;13.20;;;;;;;10.90;97.91;101669.56;5054312;28;20041;-43
2023/06/16 03:27:41;;;;;;;19.25;13.20;;;;;;;11.01;97.18;101669.22;5053194;28;20473;-42
2023/06/16 03:30:08;;;;;;;17.45;12.93;;;;;;;11.00;96.35;101671.72;5054315;28;20102;-47
2023/06/16 03:32:34;;;;;;;20.80;13.63;;;;;;;11.09;95.80;101672.13;5054031;28;20032;-48
2023/06/16 03:35:02;;;;;;;18.25;12.82;;;;;;;11.00;95.78;101666.56;5053495;28;20021;-46
2023/06/16 03:37:27;;;;;;;17.80;12.93;;;;;;;11.03;95.88;101671.84;5053799;28;20036;-45
2023/06/16 03:39:53;;;;;;;20.70;13.95;;;;;;;11.02;96.38;101677.81;5053918;28;20146;-47
2023/06/16 03:42:18;;;;;;;21.42;13.02;;;;;;;11.02;96.42;101677.81;5053187;28;20029;-44
2023/06/16 03:44:43;;;;;;;20.90;13.10;;;;;;;11.20;95.46;101670.81;5053666;28;20155;-44
2023/06/16 03:47:09;;;;;;;16.58;12.20;;;;;;;11.12;95.44;101671.34;5053912;28;20476;-47
2023/06/16 03:49:34;;;;;;;18.70;12.52;;;;;;;11.14;95.34;101675.75;5052850;28;20028;-46
2023/06/16 03:51:59;;;;;;;17.80;12.88;;;;;;;11.17;95.82;101681.03;5054228;28;20024;-47
2023/06/16 03:54:26;;;;;;;18.58;12.68;;;;;;;11.33;95.21;101679.06;5053369;28;20451;-46
2023/06/16 03:56:51;;;;;;;17.40;12.63;;;;;;;11.26;95.32;101679.63;5052943;28;20021;-45
2023/06/16 03:59:17;;;;;;;18.83;11.68;;;;;;;11.29;95.80;101683.22;5053513;28;20021;-44
2023/06/16 04:01:42;;;;;;;19.95;12.73;;;;;;;11.30;94.97;101684.13;5053429;28;20065;-48
2023/06/16 04:04:09;;;;;;;20.92;13.10;;;;;;;11.31;95.32;101683.28;5052747;28;20033;-46
2023/06/16 04:06:34;;;;;;;18.13;12.25;;;;;;;11.31;95.52;101684.16;5053180;28;20021;-44
2023/06/16 04:09:01;;;;;;;20.17;12.70;;;;;;;11.37;95.63;101683.53;5053639;28;20083;-45
2023/06/16 04:11:27;;;;;;;15.63;12.52;;;;;;;11.28;95.33;101684.03;5052234;28;20025;-43
2023/06/16 04:13:52;;;;;;;18.73;12.90;;;;;;;11.32;95.57;101690.19;5053456;28;20031;-48
2023/06/16 04:16:18;;;;;;;16.95;12.82;;;;;;;11.36;96.03;101692.06;5053365;28;20021;-45
2023/06/16 04:18:47;;;;;;;17.63;12.80;;;;;;;11.47;95.04;101685.66;5052271;28;20025;-46
2023/06/16 04:21:13;;;;;;;18.13;12.85;;;;;;;11.59;93.46;101687.81;5053263;28;20049;-46
2023/06/16 04:23:38;;;;;;;17.80;13.20;;;;;;;11.60;93.77;101693.88;5052721;28;20044;-48
2023/06/16 04:26:06;;;;;;;19.77;13.43;;;;;;;11.59;95.19;101697.28;5052287;28;20067;-48
2023/06/16 04:28:31;;;;;;;19.08;12.93;;;;;;;11.71;95.63;101695.19;5052934;28;20024;-43
2023/06/16 04:30:56;;;;;;;18.45;13.02;;;;;;;11.72;95.59;101691.75;5052889;28;20025;-44
2023/06/16 04:33:22;;;;;;;22.23;13.32;;;;;;;11.71;98.04;101697.78;5052574;28;20052;-43
2023/06/16 04:35:50;;;;;;;20.08;13.95;;;;;;;11.77;98.51;101697.97;5052934;28;20040;-47
2023/06/16 04:38:16;;;;;;;20.60;13.30;;;;;;;11.85;97.28;101699.19;5052139;28;20052;-46
2023/06/16 04:40:41;;;;;;;25.42;13.63;;;;;;;11.92;97.36;101699.41;5052820;28;20626;-45
2023/06/16 04:43:07;;;;;;;18.42;13.93;;;;;;;12.00;96.86;101692.84;5053006;28;20104;-46
2023/06/16 04:45:32;;;;;;;18.13;14.25;;;;;;;12.10;95.79;101700.13;5051795;28;20408;-47
2023/06/16 04:47:57;;;;;;;19.40;14.00;;;;;;;12.15;96.70;101703.75;5052897;28;20064;-46
2023/06/16 04:50:22;;;;;;;18.75;13.93;;;;;;;12.22;98.58;101704.00;5052616;28;20021;-45
2023/06/16 04:52:49;;;;;;;19.73;15.15;;;;;;;12.31;97.02;101706.91;5051989;28;20052;-46
2023/06/16 04:55:16;;;;;;;20.65;15.32;;;;;;;12.41;96.31;101702.94;5052723;28;20025;-45
2023/06/16 04:57:42;;;;;;;20.67;15.60;;;;;;;12.59;95.92;101710.44;5052618;28;20036;-45
2023/06/16 05:00:09;;;;;;;24.35;16.27;;;;;;;12.66;96.25;101712.44;5052118;28;20048;-45
2023/06/16 05:02:35;;;;;;;22.95;15.35;;;;;;;12.79;96.68;101709.44;5052390;28;20457;-42
2023/06/16 05:05:01;;;;;;;21.15;16.15;;;;;;;12.92;96.62;101704.69;5052556;28;20036;-43
2023/06/16 05:07:27;;;;;;;21.00;16.33;;;;;;;13.05;95.61;101706.00;5051510;28;20116;-45
2023/06/16 05:09:52;;;;;;;22.95;17.17;;;;;;;13.20;94.33;101703.03;5052579;28;20052;-42
2023/06/16 05:12:17;;;;;;;24.65;17.08;;;;;;;13.36;93.28;101705.25;5052507;28;20021;-45
2023/06/16 05:14:43;;;;;;;24.73;17.00;;;;;;;13.49;91.82;101710.06;5051696;28;20465;-41
2023/06/16 05:17:09;;;;;;;24.38;17.27;;;;;;;13.62;91.53;101700.06;5052616;28;20052;-46
2023/06/16 05:19:34;;;;;;;23.50;16.27;;;;;;;13.77;92.48;101710.03;5052021;28;20105;-42
2023/06/16 05:22:00;;;;;;;25.52;16.92;;;;;;;13.92;91.86;101710.47;5051738;28;20025;-42
2023/06/16 05:24:25;;;;;;;26.95;16.98;;;;;;;14.05;90.31;101714.31;5054220;28;20395;-42
2023/06/16 05:26:51;;;;;;;27.00;17.83;;;;;;;14.13;91.45;101709.34;5056607;28;20025;-47
2023/06/16 05:29:16;;;;;;;24.10;16.95;;;;;;;14.27;89.48;101707.16;5055914;28;20507;-47
2023/06/16 05:31:41;;;;;;;23.33;17.55;;;;;;;14.40;88.81;101709.25;5056048;28;20451;-43
2023/06/16 05:34:07;;;;;;;28.08;18.05;;;;;;;14.53;88.39;101709.59;5056449;28;20032;-45
2023/06/16 05:36:35;;;;;;;26.23;16.25;;;;;;;14.61;84.63;101710.66;5055265;28;20052;-45
2023/06/16 05:39:00;;;;;;;23.20;16.70;;;;;;;14.79;85.08;101716.38;5056081;28;20353;-42
2023/06/16 05:41:27;;;;;;;28.45;18.00;;;;;;;14.90;84.78;101716.66;5055247;28;20055;-43
2023/06/16 05:43:53;;;;;;;24.35;17.40;;;;;;;15.06;83.39;101712.72;5056191;28;20044;-44
2023/06/16 05:46:19;;;;;;;26.23;16.98;;;;;;;15.19;83.11;101716.50;5056246;28;20114;-43
2023/06/16 05:48:44;;;;;;;22.25;17.20;;;;;;;15.23;81.60;101720.94;5054890;28;20210;-41
2023/06/16 05:51:10;;;;;;;22.52;16.23;;;;;;;15.44;82.00;101720.59;5055913;28;20028;-46
2023/06/16 05:53:35;;;;;;;28.85;17.45;;;;;;;15.58;81.44;101718.31;5055658;28;20018;-44
2023/06/16 05:56:00;;;;;;;27.40;18.25;;;;;;;15.67;79.80;101722.81;5055185;28;20063;-48
2023/06/16 05:58:25;;;;;;;29.90;18.27;;;;;;;15.77;81.08;101721.31;5055720;28;20021;-45
2023/06/16 06:00:51;;;;;;;27.20;17.83;;;;;;;15.88;79.67;101724.16;5055828;28;20070;-45
2023/06/16 06:03:16;;;;;;;30.25;17.80;;;;;;;16.01;80.20;101727.91;5054998;28;20025;-45
2023/06/16 06:05:41;;;;;;;26.33;17.98;;;;;;;16.16;80.28;101722.16;5055627;28;20067;-47
2023/06/16 06:08:07;;;;;;;24.70;17.50;;;;;;;16.21;77.61;101725.72;5055536;28;20029;-45
2023/06/16 06:10:32;;;;;;;24.55;17.55;;;;;;;16.30;77.79;101725.91;5054737;28;20021;-41
2023/06/16 06:13:02;;;;;;;24.63;17.67;;;;;;;16.45;78.07;101730.56;5055815;28;20063;-43
2023/06/16 06:15:27;;;;;;;29.65;18.67;;;;;;;16.59;77.36;101738.59;5055296;28;20029;-44
2023/06/16 06:17:52;;;;;;;25.40;18.23;;;;;;;16.66;74.98;101731.81;5054945;28;20162;-45
2023/06/16 06:20:17;;;;;;;22.58;17.98;;;;;;;16.87;76.27;101734.78;5055188;28;20052;-43
2023/06/16 06:22:43;;;;;;;25.30;18.40;;;;;;;16.98;75.60;101737.63;5055221;28;20043;-42
2023/06/16 06:25:08;;;;;;;27.17;18.48;;;;;;;17.13;75.30;101737.00;5054662;28;20025;-49
2023/06/16 06:27:33;;;;;;;25.98;18.90;;;;;;;17.25;73.65;101744.16;5055086;28;20377;-41
2023/06/16 06:29:59;;;;;;;26.90;18.08;;;;;;;17.41;72.03;101743.53;5055364;28;20032;-48
2023/06/16 06:32:24;;;;;;;29.23;18.73;;;;;;;17.47;71.57;101741.88;5054265;28;20021;-46
2023/06/16 06:34:49;;;;;;;26.83;17.40;;;;;;;17.61;72.28;101750.78;5054178;28;20029;-44
2023/06/16 06:37:18;;;;;;;29.60;17.40;;;;;;;17.67;70.62;101756.06;5054728;28;20025;-48
2023/06/16 06:39:44;;;;;;;34.28;17.60;;;;;;;17.85;68.51;101754.59;5053975;28;20388;-48
2023/06/16 06:42:11;;;;;;;25.55;17.63;;;;;;;17.97;69.90;101751.31;5055138;28;20473;-45
2023/06/16 06:44:37;;;;;;;;;;;;;;;17.99;71.82;101753.09;5054409;28;20059;-43
2023/06/16 06:47:02;;;;;;;29.05;16.08;;;;;;;18.20;68.95;101751.63;5055061;28;19960;-43
2023/06/16 06:49:27;;;;;;;28.98;16.00;;;;;;;18.30;67.58;101753.47;5054588;28;20033;-48
2023/06/16 06:51:53;;;;;;;22.38;14.68;;;;;;;18.35;63.62;101745.72;5054011;28;20017;-47
2023/06/16 06:54:18;;;;;;;22.52;12.55;;;;;;;18.48;62.83;101752.81;5055049;28;20024;-44
2023/06/16 06:56:43;;;;;;;16.27;11.23;;;;;;;18.58;59.17;101752.06;5054725;28;20037;-46
2023/06/16 06:59:09;;;;;;;25.38;12.38;;;;;;;18.64;57.90;101753.84;5054135;28;20109;-48
2023/06/16 07:01:34;;;;;;;24.88;11.73;;;;;;;18.86;59.02;101756.69;5054302;28;20036;-47
2023/06/16 07:03:59;;;;;;;18.02;11.30;;;;;;;19.00;59.92;101762.94;5054509;28;20137;-46
2023/06/16 07:06:25;;;;;;;15.93;11.40;;;;;;;19.04;56.15;101766.47;5053467;28;20037;-48
2023/06/16 07:08:50;;;;;;;22.15;11.98;;;;;;;19.14;55.36;101759.59;5054777;28;20028;-47
2023/06/16 07:11:15;;;;;;;15.98;10.13;;;;;;;19.22;53.82;101764.03;5054576;28;20028;-44
2023/06/16 07:13:41;;;;;;;15.93;10.15;;;;;;;19.47;56.24;101760.72;5053384;28;20032;-47
2023/06/16 07:16:06;;;;;;;22.88;11.55;;;;;;;19.50;54.39;101760.75;5054572;28;20025;-47
2023/06/16 07:18:31;;;;;;;15.70;8.70;;;;;;;19.66;51.40;101759.09;5054106;28;20055;-46
2023/06/16 07:20:57;;;;;;;17.00;8.13;;;;;;;19.69;50.89;101764.34;5053316;28;20489;-46
2023/06/16 07:23:22;;;;;;;17.05;8.07;;;;;;;19.81;48.91;101758.34;5054325;28;20029;-43
2023/06/16 07:25:47;;;;;;;14.48;8.10;;;;;;;19.89;48.59;101769.75;5054453;28;20099;-46
2023/06/16 07:28:13;;;;;;;11.57;7.53;;;;;;;19.96;48.19;101763.69;5053907;28;20044;-48
2023/06/16 07:30:38;;;;;;;15.35;8.13;;;;;;;19.95;45.98;101767.16;5054080;28;20481;-44
2023/06/16 07:33:03;;;;;;;19.77;8.00;;;;;;;20.02;46.98;101768.94;5053923;28;20045;-46
2023/06/16 07:35:29;;;;;;;19.15;8.00;;;;;;;20.18;46.86;101763.78;5053010;28;20155;-46
2023/06/16 07:37:54;;;;;;;11.73;6.55;;;;;;;20.21;46.22;101771.66;5054092;28;20484;-47
2023/06/16 07:40:19;;;;;;;14.33;7.63;;;;;;;20.51;48.46;101763.03;5053913;28;20029;-47
2023/06/16 07:42:45;;;;;;;13.07;7.72;;;;;;;20.50;44.92;101769.16;5053036;28;20329;-48
2023/06/16 07:45:11;;;;;;;11.75;7.47;;;;;;;20.59;44.50;101775.28;5053887;28;20412;-47
2023/06/16 07:47:38;;;;;;;15.40;7.80;;;;;;;20.62;44.01;101772.66;5053067;28;20049;-46
2023/06/16 07:50:03;;;;;;;15.52;8.02;;;;;;;20.65;43.40;101776.16;5052876;28;20524;-46
2023/06/16 07:52:29;;;;;;;11.70;7.38;;;;;;;20.91;44.49;101770.13;5053644;28;20033;-47
2023/06/16 07:54:55;;;;;;;12.63;7.13;;;;;;;20.94;41.32;101766.63;5053525;28;20551;-44
2023/06/16 07:57:20;;;;;;;13.70;7.50;;;;;;;21.01;41.08;101768.41;5053234;28;20024;-45
2023/06/16 07:59:45;;;;;;;14.45;7.43;;;;;;;21.14;41.34;101756.19;5053247;28;20108;-45
2023/06/16 08:02:10;;;;;;;21.45;7.57;;;;;;;21.17;40.72;101762.28;5052767;28;20025;-45
2023/06/16 08:04:36;;;;;;;15.40;7.28;;;;;;;21.30;41.03;101762.28;5053151;28;20431;-46
2023/06/16 08:07:01;;;;;;;12.32;7.53;;;;;;;21.34;40.21;101762.28;5053696;28;20350;-44
2023/06/16 08:09:27;;;;;;;12.68;7.32;;;;;;;21.47;40.56;101757.91;5052512;28;20064;-45
2023/06/16 08:11:52;;;;;;;11.63;6.95;;;;;;;21.53;40.67;101757.88;5053385;28;20100;-48
2023/06/16 08:14:17;;;;;;;10.40;6.68;;;;;;;21.75;41.71;101757.03;5053327;28;20472;-46
2023/06/16 08:16:42;;;;;;;12.95;7.53;;;;;;;21.71;39.62;101751.75;5052282;28;20017;-43
2023/06/16 08:19:08;;;;;;;12.00;7.72;;;;;;;21.79;40.10;101753.50;5053000;28;20025;-45
2023/06/16 08:21:34;;;;;;;12.93;7.43;;;;;;;21.91;39.76;101758.72;5052676;28;20125;-43
2023/06/16 08:24:03;;;;;;;13.32;7.25;;;;;;;22.02;39.05;101751.66;5052168;28;20388;-45
2023/06/16 08:26:29;;;;;;;11.38;6.38;;;;;;;22.14;38.43;101753.41;5052793;28;20045;-44
2023/06/16 08:28:54;;;;;;;14.43;7.18;;;;;;;22.28;38.16;101755.06;5053211;28;20108;-41
2023/06/16 08:31:20;;;;;;;12.25;7.30;;;;;;;22.48;39.97;101761.13;5052356;28;20029;-43
2023/06/16 08:33:45;;;;;;;15.65;7.30;;;;;;;22.39;36.22;101748.06;5052544;28;20021;-45
2023/06/16 08:36:11;;;;;;;10.07;6.65;;;;;;;22.50;37.30;101755.88;5053123;28;20060;-46
2023/06/16 08:38:37;;;;;;;13.32;7.30;;;;;;;22.52;35.65;101754.13;5052139;28;20056;-43
2023/06/16 08:41:06;;;;;;;13.63;6.68;;;;;;;22.71;36.63;101751.38;5052868;28;20025;-47
2023/06/16 08:43:35;;;;;;;13.13;6.95;;;;;;;22.81;37.06;101758.31;5052530;28;20029;-46
2023/06/16 08:46:00;;;;;;;12.52;6.53;;;;;;;23.04;37.91;101754.66;5052255;28;20113;-45
2023/06/16 08:48:26;;;;;;;12.73;5.80;;;;;;;23.12;37.41;101752.81;5052537;28;20052;-47
2023/06/16 08:50:57;;;;;;;10.93;6.35;;;;;;;23.20;34.70;101755.41;5052890;28;20428;-47
2023/06/16 08:53:23;;;;;;;9.82;6.32;;;;;;;23.35;35.36;101753.50;5052105;28;20032;-43
2023/06/16 08:55:51;;;;;;;11.70;6.30;;;;;;;23.42;35.69;101748.19;5052930;28;20021;-48
2023/06/16 08:58:16;;;;;;;10.60;6.15;;;;;;;23.47;34.19;101747.28;5051179;28;20017;-46
2023/06/16 09:00:43;;;;;;;10.82;6.93;;;;;;;23.49;35.30;101747.25;5052257;28;20078;-47
2023/06/16 09:03:09;;;;;;;10.55;5.93;;;;;;;23.73;34.61;101746.13;5052497;28;20449;-45
2023/06/16 09:05:36;;;;;;;10.63;5.57;;;;;;;23.90;34.41;101753.88;5051849;28;20025;-48
2023/06/16 09:08:03;;;;;;;12.43;5.50;;;;;;;23.94;32.59;101754.72;5052726;28;20025;-45
2023/06/16 09:10:28;;;;;;;9.30;5.20;;;;;;;24.06;32.38;101753.69;5052409;28;20025;-45
2023/06/16 09:12:59;;;;;;;10.43;5.28;;;;;;;24.15;32.56;101753.56;5051960;28;20035;-48
2023/06/16 09:15:24;;;;;;;9.00;5.30;;;;;;;24.11;30.58;101754.50;5052265;28;20033;-47
2023/06/16 09:17:50;;;;;;;8.40;5.60;;;;;;;24.28;32.25;101756.91;5052461;28;20513;-46
2023/06/16 09:20:17;;;;;;;11.10;5.30;;;;;;;24.31;30.35;101760.38;5051836;28;20060;-46
2023/06/16 09:22:48;;;;;;;12.57;5.13;;;;;;;24.50;30.57;101757.47;5052170;28;20377;-49
2023/06/16 09:25:15;;;;;;;9.43;5.43;;;;;;;24.61;30.93;101763.47;5052550;28;20041;-47
2023/06/16 09:27:49;;;;;;;12.32;5.47;;;;;;;24.85;31.69;101761.38;5051452;28;20075;-48
2023/06/16 09:30:18;;;;;;;12.23;5.15;;;;;;;24.65;30.07;101759.06;5052376;28;20029;-47
2023/06/16 09:32:45;;;;;;;8.75;5.80;;;;;;;24.54;29.23;101756.53;5052208;28;20063;-48
2023/06/16 09:35:20;;;;;;;13.07;5.70;;;;;;;24.57;29.68;101761.78;5051985;28;20099;-48
2023/06/16 09:37:47;;;;;;;10.10;5.18;;;;;;;24.72;30.14;101749.28;5052128;28;20029;-46
2023/06/16 09:40:14;;;;;;;6.72;4.95;;;;;;;25.18;31.29;101751.19;5052609;28;20104;-44
2023/06/16 09:42:40;;;;;;;13.57;5.20;;;;;;;25.24;29.90;101747.56;5051223;28;20032;-44
2023/06/16 09:45:09;;;;;;;10.67;5.50;;;;;;;25.82;28.36;101753.56;5052450;28;20029;-45
2023/06/16 09:47:38;;;;;;;8.25;4.47;;;;;;;26.03;30.34;101746.09;5051481;28;20363;-48
2023/06/16 09:50:07;;;;;;;11.35;5.75;;;;;;;26.10;29.37;101743.31;5052426;28;20095;-46
2023/06/16 09:52:34;;;;;;;12.75;5.80;;;;;;;26.47;29.94;101739.03;5051948;28;20112;-47
2023/06/16 09:55:00;;;;;;;8.05;5.07;;;;;;;26.80;28.99;101741.78;5051401;28;20032;-48
2023/06/16 09:57:25;;;;;;;10.63;5.25;;;;;;;27.12;26.60;101742.75;5051835;28;20373;-47
2023/06/16 09:59:51;;;;;;;6.57;5.05;;;;;;;27.29;26.40;101739.69;5052381;28;20027;-46
2023/06/16 10:02:16;;;;;;;12.13;5.55;;;;;;;27.83;28.19;101737.38;5051505;28;20029;-47
2023/06/16 10:04:44;;;;;;;9.98;5.68;;;;;;;27.83;25.83;101740.88;5051829;28;20372;-49
2023/06/16 10:07:09;;;;;;;;;;;;;;;27.94;28.73;101743.22;5052669;28;20029;-47
2023/06/16 10:09:47;;;;;;;10.87;5.23;;;;;;;28.28;27.11;101730.75;5051901;28;19913;-46
2023/06/16 10:12:14;;;;;;;9.50;5.45;;;;;;;29.13;26.00;101734.22;5055560;28;20464;-44
2023/06/16 10:14:41;;;;;;;11.05;5.63;;;;;;;29.80;25.24;101731.88;5055552;28;20450;-47
2023/06/16 10:17:10;;;;;;;8.98;5.72;;;;;;;29.73;23.74;101736.56;5055023;28;20073;-45
2023/06/16 10:19:38;;;;;;;12.55;5.53;;;;;;;30.53;24.09;101727.34;5055000;28;20536;-47
2023/06/16 10:22:04;;;;;;;9.10;4.63;;;;;;;31.02;23.88;101730.59;5055504;28;20025;-44
2023/06/16 10:24:30;;;;;;;9.80;5.28;;;;;;;31.44;22.12;101739.50;5054591;28;20032;-48
2023/06/16 10:26:57;;;;;;;8.82;5.50;;;;;;;32.03;21.51;101734.19;5055520;28;20078;-45
2023/06/16 10:29:25;;;;;;;8.18;5.32;;;;;;;32.23;20.89;101733.28;5055121;28;20031;-44
2023/06/16 10:32:02;;;;;;;12.40;5.68;;;;;;;31.99;21.31;101732.59;5054710;28;20036;-46
2023/06/16 10:34:27;;;;;;;11.30;5.75;;;;;;;33.01;20.45;101725.00;5054898;28;20047;-45
2023/06/16 10:36:54;;;;;;;9.13;5.63;;;;;;;33.27;19.17;101728.16;5054531;28;20459;-47
2023/06/16 10:39:20;;;;;;;16.65;5.20;;;;;;;33.85;19.15;101718.84;5055094;28;20376;-46
2023/06/16 10:41:58;;;;;;;9.53;5.20;;;;;;;32.63;19.49;101723.31;5055011;28;20457;-46
2023/06/16 10:44:30;;;;;;;11.70;4.95;;;;;;;32.64;20.02;101718.84;5053829;28;20128;-46
2023/06/16 10:47:05;;;;;;;8.70;4.97;;;;;;;33.71;19.97;101711.53;5052509;28;20090;-45
2023/06/16 10:49:31;;;;;;;9.82;5.03;;;;;;;33.93;18.61;101708.59;5054841;28;20032;-43
2023/06/16 10:51:58;;;;;;;8.65;5.00;;;;;;;34.32;18.85;101711.78;5054091;28;20457;-41
2023/06/16 10:54:33;;;;;;;12.60;4.93;;;;;;;34.41;19.09;101711.28;5054605;28;20036;-45
2023/06/16 10:57:06;;;;;;;10.88;4.72;;;;;;;34.26;18.95;101714.78;5054805;28;20071;-43
2023/06/16 10:59:53;;;;;;;9.50;4.75;;;;;;;34.40;18.69;101714.88;5053665;28;20036;-45
2023/06/16 11:02:25;;;;;;;8.18;4.80;;;;;;;35.23;16.80;101718.97;5054928;28;20053;-47
2023/06/16 11:05:12;;;;;;;9.48;4.38;;;;;;;35.47;17.96;101713.06;5054356;28;20136;-43
2023/06/16 11:07:39;;;;;;;9.35;4.57;;;;;;;35.67;17.43;101711.81;5054349;28;20159;-44
2023/06/16 11:10:10;;;;;;;11.73;4.97;;;;;;;35.80;16.37;101712.75;5054580;28;20056;-48
2023/06/16 11:12:37;;;;;;;16.02;4.80;;;;;;;34.55;16.32;101702.44;5053678;28;20051;-47